createdAt,value
2017-08-27T00:02:13.344Z,98.10
2017-08-27T00:04:40.894Z,98.00
2017-08-27T00:07:08.420Z,97.80
2017-08-27T00:09:35.925Z,98.00
2017-08-27T00:12:03.471Z,98.00
2017-08-27T00:14:31.033Z,98.00
2017-08-27T00:16:58.566Z,98.00
2017-08-27T00:19:26.942Z,97.90
2017-08-27T00:21:54.535Z,97.80
2017-08-27T00:24:22.035Z,97.80
2017-08-27T00:26:49.547Z,97.70
2017-08-27T00:29:17.974Z,97.90
2017-08-27T00:31:45.450Z,98.20
2017-08-27T00:34:12.953Z,98.40
2017-08-27T00:36:40.438Z,98.40
2017-08-27T00:39:07.943Z,98.20
2017-08-27T00:41:35.430Z,98.10
2017-08-27T00:44:02.927Z,98.00
2017-08-27T00:46:31.431Z,98.00
2017-08-27T00:48:58.938Z,98.00
2017-08-27T00:51:26.426Z,98.00
2017-08-27T00:53:53.916Z,98.10
2017-08-27T00:56:21.423Z,98.20
2017-08-27T00:58:48.906Z,98.20
2017-08-27T01:01:16.410Z,98.10
2017-08-27T01:03:43.895Z,97.90
2017-08-27T01:06:11.411Z,97.40
2017-08-27T01:08:38.902Z,97.40
2017-08-27T01:11:06.389Z,97.30
2017-08-27T01:13:33.888Z,97.50
2017-08-27T01:16:01.379Z,97.80
2017-08-27T01:18:28.890Z,98.20
2017-08-27T01:20:56.384Z,98.40
2017-08-27T01:23:23.913Z,98.40
2017-08-27T01:25:52.346Z,98.20
2017-08-27T01:28:19.829Z,98.30
2017-08-27T01:30:47.328Z,98.30
2017-08-27T01:33:14.822Z,98.20
2017-08-27T01:35:42.327Z,98.10
2017-08-27T01:38:09.815Z,98.20
2017-08-27T01:40:37.323Z,98.30
2017-08-27T01:43:04.807Z,98.40
2017-08-27T01:45:32.294Z,98.50
2017-08-27T01:47:59.808Z,98.60
2017-08-27T01:50:27.299Z,98.50
2017-08-27T01:52:54.830Z,98.40
2017-08-27T01:55:22.319Z,98.40
2017-08-27T01:57:49.826Z,98.30
2017-08-27T02:00:18.263Z,98.40
2017-08-27T02:02:45.762Z,98.60
2017-08-27T02:05:13.246Z,98.70
2017-08-27T02:07:41.682Z,98.70
2017-08-27T02:10:09.216Z,98.70
2017-08-27T02:12:36.718Z,98.60
2017-08-27T02:15:04.223Z,98.50
2017-08-27T02:17:32.646Z,98.40
2017-08-27T02:20:00.151Z,98.30
2017-08-27T02:22:27.634Z,98.20
2017-08-27T02:24:55.135Z,98.10
2017-08-27T02:27:22.614Z,98.30
2017-08-27T02:29:50.108Z,98.50
2017-08-27T02:32:17.614Z,98.70
2017-08-27T02:34:45.094Z,98.80
2017-08-27T02:37:12.635Z,99.00
2017-08-27T02:39:40.118Z,99.00
2017-08-27T02:42:07.635Z,98.80
2017-08-27T02:44:35.134Z,98.80
2017-08-27T02:47:02.628Z,98.80
2017-08-27T02:49:30.138Z,98.90
2017-08-27T02:51:59.579Z,99.00
2017-08-27T02:54:27.078Z,99.10
2017-08-27T02:56:54.631Z,99.10
2017-08-27T02:59:22.110Z,99.00
2017-08-27T03:01:49.625Z,98.80
2017-08-27T03:04:17.107Z,98.70
2017-08-27T03:06:44.607Z,98.80
2017-08-27T03:09:12.098Z,98.80
2017-08-27T03:11:41.568Z,98.80
2017-08-27T03:14:09.055Z,98.90
2017-08-27T03:16:36.554Z,98.90
2017-08-27T03:19:04.045Z,98.80
2017-08-27T03:21:33.492Z,98.70
2017-08-27T03:24:00.981Z,98.60
2017-08-27T03:26:28.478Z,98.60
2017-08-27T03:28:55.961Z,98.70
2017-08-27T03:31:23.480Z,98.70
2017-08-27T03:33:51.006Z,98.70
2017-08-27T03:36:18.506Z,98.70
2017-08-27T03:38:45.999Z,98.70
2017-08-27T03:41:15.451Z,98.50
2017-08-27T03:43:42.943Z,98.50
2017-08-27T03:46:12.394Z,98.40
2017-08-27T03:48:39.874Z,98.30
2017-08-27T03:51:07.379Z,98.50
2017-08-27T03:53:34.860Z,98.90
2017-08-27T03:56:02.362Z,99.10
2017-08-27T03:58:29.855Z,99.20
2017-08-27T04:00:57.363Z,99.20
2017-08-27T04:03:24.855Z,99.20
2017-08-27T04:05:52.378Z,99.30
2017-08-27T04:08:19.863Z,99.50
2017-08-27T04:10:47.359Z,99.50
2017-08-27T04:13:14.862Z,99.60
2017-08-27T04:15:43.311Z,99.60
2017-08-27T04:18:11.758Z,99.60
2017-08-27T04:20:39.242Z,99.50
2017-08-27T04:23:06.787Z,99.50
2017-08-27T04:25:34.272Z,99.50
2017-08-27T04:28:01.771Z,99.30
2017-08-27T04:30:29.259Z,99.10
2017-08-27T04:32:56.774Z,98.90
2017-08-27T04:35:25.203Z,98.70
2017-08-27T04:37:52.724Z,98.60
2017-08-27T04:40:20.209Z,98.70
2017-08-27T04:42:47.730Z,98.80
2017-08-27T04:45:15.211Z,98.90
2017-08-27T04:47:42.742Z,98.80
2017-08-27T04:50:10.214Z,99.00
2017-08-27T04:52:37.732Z,99.20
2017-08-27T04:55:05.219Z,99.30
2017-08-27T04:57:32.715Z,99.40
2017-08-27T05:00:00.234Z,99.30
2017-08-27T05:02:27.718Z,99.20
2017-08-27T05:04:55.224Z,99.00
2017-08-27T05:07:22.727Z,99.10
2017-08-27T05:09:50.243Z,99.30
2017-08-27T05:12:17.746Z,99.50
2017-08-27T05:14:47.211Z,99.40
2017-08-27T05:17:14.706Z,99.40
2017-08-27T05:19:42.212Z,99.50
2017-08-27T05:22:10.647Z,99.60
2017-08-27T05:24:38.154Z,99.60
2017-08-27T05:27:05.643Z,99.60
2017-08-27T05:29:33.143Z,99.40
2017-08-27T05:32:00.642Z,99.10
2017-08-27T05:34:28.136Z,99.10
2017-08-27T05:36:55.628Z,98.90
2017-08-27T05:39:23.139Z,98.50
2017-08-27T05:41:50.631Z,98.60
2017-08-27T05:44:18.127Z,98.60
2017-08-27T05:46:46.549Z,98.80
2017-08-27T05:49:14.042Z,98.90
2017-08-27T05:51:41.530Z,98.90
2017-08-27T05:54:09.930Z,98.90
2017-08-27T05:56:37.415Z,98.60
2017-08-27T05:59:04.928Z,98.50
2017-08-27T06:01:32.445Z,98.90
2017-08-27T06:03:59.966Z,98.80
2017-08-27T06:06:27.455Z,98.40
2017-08-27T06:08:54.954Z,98.40
2017-08-27T06:11:23.396Z,98.50
2017-08-27T06:13:50.899Z,98.50
2017-08-27T06:16:18.379Z,98.10
2017-08-27T06:18:47.823Z,98.10
2017-08-27T06:21:15.310Z,98.30
2017-08-27T06:23:42.855Z,98.30
2017-08-27T06:26:11.304Z,98.30
2017-08-27T06:28:38.813Z,98.20
2017-08-27T06:31:06.294Z,98.30
2017-08-27T06:33:35.763Z,98.10
2017-08-27T06:36:03.251Z,98.10
2017-08-27T06:38:30.779Z,97.90
2017-08-27T06:40:58.258Z,97.40
2017-08-27T06:43:25.791Z,97.30
2017-08-27T06:45:53.273Z,97.40
2017-08-27T06:48:20.790Z,97.40
2017-08-27T06:50:48.267Z,97.40
2017-08-27T06:53:15.762Z,97.50
2017-08-27T06:55:43.251Z,97.30
2017-08-27T06:58:10.739Z,97.50
2017-08-27T07:00:38.238Z,97.00
2017-08-27T07:03:05.718Z,96.80
2017-08-27T07:05:33.220Z,97.00
2017-08-27T07:08:01.603Z,96.30
2017-08-27T07:10:29.124Z,95.60
2017-08-27T07:12:56.658Z,95.10
2017-08-27T07:15:24.175Z,94.70
2017-08-27T07:17:51.674Z,94.20
2017-08-27T07:20:19.199Z,94.20
2017-08-27T07:22:46.681Z,94.00
2017-08-27T07:25:14.187Z,93.10
2017-08-27T07:27:41.672Z,92.50
2017-08-27T07:30:09.183Z,92.80
2017-08-27T07:32:36.666Z,92.10
2017-08-27T07:35:04.161Z,91.50
2017-08-27T07:37:31.655Z,91.70
2017-08-27T07:39:59.146Z,91.70
2017-08-27T07:42:26.655Z,91.50
2017-08-27T07:44:54.143Z,91.80
2017-08-27T07:47:21.650Z,91.90
2017-08-27T07:49:49.137Z,91.50
2017-08-27T07:52:18.607Z,91.60
2017-08-27T07:54:47.076Z,91.40
2017-08-27T07:57:14.616Z,91.50
2017-08-27T07:59:42.106Z,91.70
2017-08-27T08:02:09.647Z,91.70
2017-08-27T08:04:37.147Z,92.10
2017-08-27T08:07:04.650Z,92.90
2017-08-27T08:09:32.135Z,92.00
2017-08-27T08:11:59.647Z,91.30
2017-08-27T08:14:27.132Z,90.00
2017-08-27T08:16:54.653Z,90.10
2017-08-27T08:19:22.139Z,90.10
2017-08-27T08:21:49.671Z,88.80
2017-08-27T08:24:17.159Z,88.70
2017-08-27T08:26:44.679Z,88.30
2017-08-27T08:29:12.185Z,88.50
2017-08-27T08:31:39.690Z,88.60
2017-08-27T08:34:07.189Z,88.50
2017-08-27T08:36:34.707Z,88.20
2017-08-27T08:39:02.228Z,89.30
2017-08-27T08:41:31.719Z,89.20
2017-08-27T08:43:59.218Z,88.60
2017-08-27T08:46:26.724Z,88.50
2017-08-27T08:48:54.223Z,87.80
2017-08-27T08:51:21.725Z,87.90
2017-08-27T08:53:49.223Z,88.40
2017-08-27T08:56:16.745Z,86.60
2017-08-27T08:58:44.239Z,86.20
2017-08-27T09:01:13.724Z,86.10
2017-08-27T09:03:41.234Z,86.00
2017-08-27T09:06:08.722Z,86.20
2017-08-27T09:08:36.235Z,86.70
2017-08-27T09:11:03.710Z,86.00
2017-08-27T09:13:31.228Z,85.90
2017-08-27T09:15:59.667Z,85.30
2017-08-27T09:18:27.186Z,86.10
2017-08-27T09:20:54.691Z,85.90
2017-08-27T09:23:24.205Z,85.40
2017-08-27T09:25:51.692Z,84.70
2017-08-27T09:28:19.214Z,84.10
2017-08-27T09:30:46.691Z,83.90
2017-08-27T09:33:14.207Z,83.70
2017-08-27T09:35:41.698Z,84.30
2017-08-27T09:38:09.191Z,83.80
2017-08-27T09:40:36.744Z,83.40
2017-08-27T09:43:04.246Z,83.60
2017-08-27T09:45:31.753Z,83.90
2017-08-27T09:47:59.267Z,85.50
2017-08-27T09:50:26.790Z,84.20
2017-08-27T09:52:55.239Z,84.10
2017-08-27T09:55:22.759Z,83.50
2017-08-27T09:57:50.268Z,82.30
2017-08-27T10:00:18.690Z,81.80
2017-08-27T10:02:46.199Z,82.00
2017-08-27T10:05:13.688Z,81.50
2017-08-27T10:07:41.201Z,80.50
2017-08-27T10:10:08.719Z,80.50
2017-08-27T10:12:36.203Z,79.30
2017-08-27T10:15:03.712Z,80.30
2017-08-27T10:17:32.104Z,81.00
2017-08-27T10:19:59.624Z,79.40
2017-08-27T10:22:27.114Z,78.90
2017-08-27T10:24:54.625Z,77.80
2017-08-27T10:27:24.084Z,77.50
2017-08-27T10:29:51.596Z,77.50
2017-08-27T10:32:19.122Z,77.20
2017-08-27T10:34:46.621Z,76.70
2017-08-27T10:37:15.043Z,76.40
2017-08-27T10:39:44.354Z,76.40
2017-08-27T10:42:11.898Z,75.70
2017-08-27T10:44:39.403Z,76.90
2017-08-27T10:47:06.931Z,75.80
2017-08-27T10:49:34.424Z,75.90
2017-08-27T10:52:01.966Z,75.60
2017-08-27T10:54:29.486Z,77.10
2017-08-27T10:56:56.971Z,76.90
2017-08-27T10:59:24.466Z,76.60
2017-08-27T11:01:51.958Z,76.80
2017-08-27T11:04:19.463Z,76.80
2017-08-27T11:06:47.907Z,77.10
2017-08-27T11:09:15.423Z,76.80
2017-08-27T11:11:42.919Z,76.10
2017-08-27T11:14:12.359Z,76.00
2017-08-27T11:16:39.842Z,77.00
2017-08-27T11:19:07.371Z,76.50
2017-08-27T11:21:34.858Z,76.00
2017-08-27T11:24:02.367Z,76.20
2017-08-27T11:26:29.891Z,76.80
2017-08-27T11:28:59.341Z,76.40
2017-08-27T11:31:26.834Z,76.90
2017-08-27T11:33:54.367Z,76.40
2017-08-27T11:36:21.858Z,76.50
2017-08-27T11:38:49.367Z,76.60
2017-08-27T11:41:16.890Z,76.70
2017-08-27T11:43:44.397Z,76.60
2017-08-27T11:46:11.920Z,76.60
2017-08-27T11:48:39.441Z,75.90
2017-08-27T11:51:06.951Z,76.20
2017-08-27T11:53:34.466Z,75.60
2017-08-27T11:56:01.951Z,76.50
2017-08-27T11:58:29.453Z,76.70
2017-08-27T12:00:56.935Z,77.30
2017-08-27T12:03:26.383Z,78.10
2017-08-27T12:05:53.864Z,77.30
2017-08-27T12:08:21.372Z,76.90
2017-08-27T12:10:48.860Z,76.80
2017-08-27T12:13:16.374Z,76.80
2017-08-27T12:15:43.858Z,77.10
2017-08-27T12:18:12.363Z,76.80
2017-08-27T12:20:39.854Z,76.70
2017-08-27T12:23:07.343Z,77.30
2017-08-27T12:25:34.842Z,76.20
2017-08-27T12:28:02.331Z,77.80
2017-08-27T12:30:29.849Z,76.80
2017-08-27T12:32:57.338Z,77.50
2017-08-27T12:38:01.927Z,77.20
2017-08-27T12:40:29.434Z,76.70
2017-08-27T12:42:56.927Z,77.30
2017-08-27T12:45:24.447Z,77.00
2017-08-27T12:47:51.949Z,76.40
2017-08-27T12:50:19.486Z,77.40
2017-08-27T12:52:46.983Z,76.50
2017-08-27T12:55:14.592Z,77.40
2017-08-27T12:57:42.066Z,75.30
2017-08-27T13:00:09.912Z,75.80
2017-08-27T13:02:37.406Z,75.80
2017-08-27T13:05:04.921Z,74.70
2017-08-27T13:07:32.410Z,72.90
2017-08-27T13:10:00.814Z,74.10
2017-08-27T13:12:28.298Z,73.90
2017-08-27T13:14:55.822Z,72.90
2017-08-27T13:17:23.311Z,72.40
2017-08-27T13:19:51.795Z,73.20
2017-08-27T13:22:20.190Z,73.60
2017-08-27T13:24:47.723Z,72.40
2017-08-27T13:27:15.207Z,72.90
2017-08-27T13:29:42.743Z,74.50
2017-08-27T13:32:10.231Z,73.30
2017-08-27T13:34:37.740Z,74.50
2017-08-27T13:37:06.171Z,73.80
2017-08-27T13:39:33.687Z,74.20
2017-08-27T13:42:01.173Z,73.30
2017-08-27T13:44:28.665Z,73.40
2017-08-27T13:46:56.175Z,74.00
2017-08-27T13:49:23.665Z,74.70
2017-08-27T13:51:51.175Z,73.60
2017-08-27T13:54:18.655Z,75.40
2017-08-27T13:56:46.163Z,72.50
2017-08-27T13:59:13.662Z,72.50
2017-08-27T14:01:41.189Z,74.10
2017-08-27T14:04:08.676Z,74.40
2017-08-27T14:06:36.182Z,73.90
2017-08-27T14:09:03.697Z,74.30
2017-08-27T14:11:31.219Z,74.20
2017-08-27T14:13:58.703Z,74.30
2017-08-27T14:16:28.119Z,74.20
2017-08-27T14:18:56.504Z,75.00
2017-08-27T14:21:24.011Z,74.50
2017-08-27T14:23:51.510Z,74.70
2017-08-27T14:26:18.999Z,73.90
2017-08-27T14:28:46.530Z,72.70
2017-08-27T14:31:14.976Z,72.00
2017-08-27T14:33:42.506Z,71.70
2017-08-27T14:36:10.019Z,74.90
2017-08-27T14:38:37.575Z,72.20
2017-08-27T14:41:05.073Z,71.30
2017-08-27T14:43:32.613Z,73.70
2017-08-27T14:46:00.111Z,72.50
2017-08-27T14:48:27.623Z,73.00
2017-08-27T14:50:55.147Z,73.70
2017-08-27T14:53:25.797Z,72.50
2017-08-27T14:55:54.271Z,72.90
2017-08-27T14:58:22.677Z,72.10
2017-08-27T15:00:50.198Z,72.40
2017-08-27T15:03:17.727Z,72.00
2017-08-27T15:05:45.218Z,72.40
2017-08-27T15:08:12.731Z,72.20
2017-08-27T15:10:42.198Z,71.50
2017-08-27T15:13:09.778Z,72.50
2017-08-27T15:15:37.279Z,72.50
2017-08-27T15:18:05.436Z,72.30
2017-08-27T15:20:32.922Z,72.00
2017-08-27T15:23:00.433Z,71.90
2017-08-27T15:25:27.922Z,71.50
2017-08-27T15:27:55.486Z,72.60
2017-08-27T15:30:23.020Z,73.00
2017-08-27T15:32:50.664Z,73.20
2017-08-27T15:35:18.190Z,73.10
2017-08-27T15:37:46.638Z,71.90
2017-08-27T15:40:15.078Z,71.40
2017-08-27T15:42:42.575Z,70.90
2017-08-27T15:45:12.071Z,72.50
2017-08-27T15:47:39.555Z,72.50
2017-08-27T15:50:07.053Z,73.10
2017-08-27T15:52:34.571Z,73.80
2017-08-27T15:55:04.053Z,74.10
2017-08-27T15:57:31.551Z,74.60
2017-08-27T15:59:59.127Z,74.40
2017-08-27T16:02:26.674Z,74.30
2017-08-27T16:04:55.127Z,74.60
2017-08-27T16:07:24.609Z,74.10
2017-08-27T16:09:52.127Z,74.40
2017-08-27T16:12:20.563Z,74.70
2017-08-27T16:14:48.078Z,74.80
2017-08-27T16:17:15.595Z,74.70
2017-08-27T16:19:43.103Z,74.40
2017-08-27T16:22:10.619Z,73.80
2017-08-27T16:24:38.123Z,73.80
2017-08-27T16:27:05.634Z,73.60
2017-08-27T16:29:33.165Z,74.00
2017-08-27T16:32:00.656Z,74.00
2017-08-27T16:34:28.184Z,74.10
2017-08-27T16:36:55.689Z,74.20
2017-08-27T16:39:23.199Z,74.30
2017-08-27T16:41:50.691Z,74.50
2017-08-27T16:44:18.211Z,74.60
2017-08-27T16:46:57.832Z,75.00
2017-08-27T16:49:25.363Z,74.80
2017-08-27T16:51:52.941Z,75.30
2017-08-27T16:54:20.620Z,74.80
2017-08-27T16:56:48.190Z,74.80
2017-08-27T16:59:15.763Z,74.80
2017-08-27T17:01:43.411Z,75.00
2017-08-27T17:04:10.990Z,75.30
2017-08-27T17:06:38.620Z,75.40
2017-08-27T17:09:06.257Z,75.50
2017-08-27T17:11:33.840Z,75.80
2017-08-27T17:14:01.515Z,76.80
2017-08-27T17:16:30.055Z,76.00
2017-08-27T17:18:58.649Z,75.90
2017-08-27T17:21:26.277Z,76.00
2017-08-27T17:23:53.870Z,76.20
2017-08-27T17:26:21.376Z,76.00
2017-08-27T17:28:48.900Z,76.50
2017-08-27T17:31:16.382Z,76.40
2017-08-27T17:33:43.883Z,76.60
2017-08-27T17:36:11.374Z,76.40
2017-08-27T17:38:38.906Z,76.50
2017-08-27T17:41:07.299Z,76.30
2017-08-27T17:43:34.827Z,76.60
2017-08-27T17:46:02.324Z,76.60
2017-08-27T17:48:29.847Z,76.50
2017-08-27T17:50:57.331Z,76.60
2017-08-27T17:53:24.856Z,76.90
2017-08-27T17:55:53.270Z,76.90
2017-08-27T17:58:20.794Z,77.00
2017-08-27T18:00:48.322Z,77.00
2017-08-27T18:03:15.826Z,77.10
2017-08-27T18:05:44.334Z,77.40
2017-08-27T18:08:11.858Z,77.50
2017-08-27T18:10:39.404Z,77.50
2017-08-27T18:13:06.899Z,77.50
2017-08-27T18:15:34.419Z,77.90
2017-08-27T18:18:01.927Z,77.80
2017-08-27T18:20:29.459Z,78.10
2017-08-27T18:22:56.942Z,78.30
2017-08-27T18:25:24.451Z,78.30
2017-08-27T18:27:51.953Z,78.40
2017-08-27T18:30:20.272Z,78.60
2017-08-27T18:32:47.795Z,80.40
2017-08-27T18:35:15.375Z,82.20
2017-08-27T18:37:42.927Z,83.20
2017-08-27T18:40:10.510Z,84.10
2017-08-27T18:42:38.070Z,84.80
2017-08-27T18:45:05.655Z,85.30
2017-08-27T18:47:33.242Z,85.80
2017-08-27T18:50:00.771Z,85.80
2017-08-27T18:52:28.371Z,86.00
2017-08-27T18:54:55.984Z,86.40
2017-08-27T18:57:24.407Z,86.60
2017-08-27T18:59:52.050Z,87.20
2017-08-27T19:02:19.624Z,87.60
2017-08-27T19:04:47.174Z,87.90
2017-08-27T19:07:14.712Z,87.80
2017-08-27T19:09:42.303Z,87.70
2017-08-27T19:12:09.871Z,87.70
2017-08-27T19:14:37.584Z,88.30
2017-08-27T19:17:06.291Z,88.50
2017-08-27T19:19:33.894Z,89.10
2017-08-27T19:22:01.428Z,89.30
2017-08-27T19:24:29.124Z,89.10
2017-08-27T19:26:56.687Z,89.10
2017-08-27T19:29:24.332Z,89.70
2017-08-27T19:31:51.946Z,90.00
2017-08-27T19:34:19.562Z,90.30
2017-08-27T19:36:48.446Z,90.30
2017-08-27T19:39:16.093Z,90.40
2017-08-27T19:41:44.057Z,90.30
2017-08-27T19:44:11.675Z,90.20
2017-08-27T19:46:39.257Z,89.90
2017-08-27T19:49:06.838Z,89.90
2017-08-27T19:51:34.532Z,89.50
2017-08-27T19:54:02.201Z,89.90
2017-08-27T19:56:29.863Z,89.90
2017-08-27T19:58:57.462Z,90.10
2017-08-27T20:01:25.068Z,90.10
2017-08-27T20:03:52.659Z,90.10
2017-08-27T20:06:20.237Z,90.10
2017-08-27T20:08:48.796Z,90.40
2017-08-27T20:11:16.344Z,90.20
2017-08-27T20:13:43.860Z,90.50
2017-08-27T20:16:11.617Z,90.80
2017-08-27T20:18:39.202Z,90.50
2017-08-27T20:21:06.758Z,90.60
2017-08-27T20:23:34.314Z,90.60
2017-08-27T20:26:01.882Z,90.70
2017-08-27T20:28:29.470Z,90.90
2017-08-27T20:30:57.017Z,90.60
2017-08-27T20:33:25.389Z,91.00
2017-08-27T20:38:26.905Z,91.10
2017-08-27T20:40:54.511Z,91.40
2017-08-27T20:43:22.119Z,91.30
2017-08-27T20:45:49.718Z,91.40
2017-08-27T20:48:17.326Z,91.50
2017-08-27T20:50:44.886Z,91.60
2017-08-27T20:53:12.460Z,91.50
2017-08-27T20:55:42.099Z,91.80
2017-08-27T20:58:09.656Z,92.10
2017-08-27T21:00:37.260Z,92.10
2017-08-27T21:03:11.015Z,92.30
2017-08-27T21:05:38.619Z,92.40
2017-08-27T21:08:06.219Z,92.60
2017-08-27T21:10:35.767Z,92.20
2017-08-27T21:13:03.306Z,92.00
2017-08-27T21:15:30.835Z,92.00
2017-08-27T21:17:58.400Z,92.00
2017-08-27T21:20:25.931Z,91.70
2017-08-27T21:22:54.459Z,91.70
2017-08-27T21:25:22.003Z,91.80
2017-08-27T21:27:49.518Z,91.70
2017-08-27T21:30:17.087Z,88.90
2017-08-27T21:32:46.059Z,87.00
2017-08-27T21:35:13.665Z,86.90
2017-08-27T21:37:41.204Z,85.60
2017-08-27T21:40:08.840Z,85.30
2017-08-27T21:42:36.456Z,84.70
2017-08-27T21:45:04.062Z,84.80
2017-08-27T21:47:31.675Z,84.90
2017-08-27T21:49:59.268Z,84.80
2017-08-27T21:52:26.920Z,84.90
2017-08-27T21:54:54.436Z,84.80
2017-08-27T21:57:23.954Z,84.80
2017-08-27T21:59:51.646Z,84.80
2017-08-27T22:02:19.253Z,84.30
2017-08-27T22:04:46.936Z,84.40
2017-08-27T22:07:14.494Z,84.20
2017-08-27T22:09:43.064Z,83.80
2017-08-27T22:12:10.666Z,83.50
2017-08-27T22:14:38.290Z,83.10
2017-08-27T22:17:05.872Z,82.90
2017-08-27T22:19:33.379Z,82.80
2017-08-27T22:22:00.926Z,82.20
2017-08-27T22:24:28.500Z,82.10
2017-08-27T22:26:58.030Z,82.50
2017-08-27T22:29:25.566Z,82.50
2017-08-27T22:31:53.063Z,82.30
2017-08-27T22:34:20.617Z,82.30
2017-08-27T22:36:48.165Z,82.10
2017-08-27T22:39:15.703Z,82.90
2017-08-27T22:41:43.270Z,82.60
2017-08-27T22:44:10.822Z,82.60
2017-08-27T22:46:38.332Z,82.70
2017-08-27T22:49:05.868Z,83.00
2017-08-27T22:51:33.435Z,83.00
2017-08-27T22:54:01.030Z,82.80
2017-08-27T22:56:28.567Z,82.50
2017-08-27T22:58:56.123Z,82.50
2017-08-27T23:01:23.670Z,82.90
2017-08-27T23:03:51.241Z,82.60
2017-08-27T23:06:18.852Z,82.70
2017-08-27T23:08:48.367Z,82.90
2017-08-27T23:11:15.909Z,82.90
2017-08-27T23:13:43.430Z,82.90
2017-08-27T23:16:10.925Z,83.10
2017-08-27T23:18:40.413Z,83.10
2017-08-27T23:21:07.922Z,83.00
2017-08-27T23:23:35.434Z,82.80
2017-08-27T23:26:02.926Z,82.80
2017-08-27T23:28:30.412Z,83.10
2017-08-27T23:30:57.903Z,82.70
2017-08-27T23:33:25.387Z,82.90
2017-08-27T23:35:52.891Z,83.30
2017-08-27T23:38:20.370Z,83.10
2017-08-27T23:40:47.882Z,83.70
2017-08-27T23:43:15.374Z,83.70
2017-08-27T23:45:42.894Z,82.90
2017-08-27T23:48:10.382Z,83.10
2017-08-27T23:50:38.858Z,82.70
2017-08-27T23:53:06.349Z,83.00
2017-08-27T23:55:33.855Z,83.00
2017-08-27T23:58:01.338Z,83.20
